Time;durP1;ratioP1;P1;durP2;ratioP2;P2;SDS_P1;SDS_P2;PMS_P1;PMS_P2;Temp;Humidity;BMP_temperature;BMP_pressure;BME280_temperature;BME280_humidity;BME280_pressure;Samples;Min_cycle;Max_cycle;Signal;HPM_P1;HPM_P2
2023/08/13 00:02:06;;;;;;;17.02;6.00;;;;;;;18.32;100.00;101602.00;5059132;28;20033;-72
2023/08/13 00:04:32;;;;;;;15.93;5.35;;;;;;;18.23;100.00;101600.94;5056235;28;20033;-72
2023/08/13 00:06:59;;;;;;;14.80;5.55;;;;;;;18.11;100.00;101600.09;5058634;28;20037;-71
2023/08/13 00:09:25;;;;;;;14.07;5.22;;;;;;;18.04;100.00;101603.47;5059912;28;20025;-71
2023/08/13 00:11:50;;;;;;;11.93;4.82;;;;;;;18.05;100.00;101606.03;5056409;28;20045;-72
2023/08/13 00:14:16;;;;;;;13.45;5.55;;;;;;;18.12;100.00;101595.56;5062695;28;20052;-72
2023/08/13 00:16:41;;;;;;;16.08;5.43;;;;;;;18.03;100.00;101601.75;5061321;28;20045;-71
2023/08/13 00:19:07;;;;;;;17.08;5.47;;;;;;;18.10;100.00;101595.69;5063587;28;20029;-72
2023/08/13 00:21:32;;;;;;;13.40;5.32;;;;;;;18.10;100.00;101601.09;5058123;28;20034;-72
2023/08/13 00:23:58;;;;;;;12.68;4.78;;;;;;;18.02;100.00;101590.09;5047433;28;20529;-72
2023/08/13 00:26:23;;;;;;;17.23;5.18;;;;;;;17.98;100.00;101593.19;5048287;28;20032;-72
2023/08/13 00:28:49;;;;;;;14.00;4.85;;;;;;;17.93;100.00;101590.84;5077904;27;20104;-72
2023/08/13 00:31:15;;;;;;;13.40;5.25;;;;;;;17.83;100.00;101596.16;5051826;28;20036;-73
2023/08/13 00:33:42;;;;;;;11.52;4.82;;;;;;;17.90;100.00;101591.09;5051031;28;20514;-71
2023/08/13 00:36:07;;;;;;;14.43;4.88;;;;;;;17.88;100.00;101587.69;5051948;28;20038;-72
2023/08/13 00:38:33;;;;;;;10.13;4.55;;;;;;;18.01;100.00;101593.75;5051292;28;20041;-72
2023/08/13 00:40:59;;;;;;;15.75;4.22;;;;;;;17.94;100.00;101589.00;5052243;28;21012;-72
2023/08/13 00:43:24;;;;;;;14.07;4.25;;;;;;;17.73;100.00;101588.94;5045973;28;20777;-72
2023/08/13 00:45:50;;;;;;;16.50;5.55;;;;;;;17.74;100.00;101590.66;5050749;28;20033;-72
2023/08/13 00:48:16;;;;;;;16.25;4.32;;;;;;;17.70;100.00;101584.59;5051391;28;20037;-72
2023/08/13 00:50:44;;;;;;;15.90;4.57;;;;;;;17.75;100.00;101586.97;5052724;28;20558;-72
2023/08/13 00:53:10;;;;;;;12.73;4.47;;;;;;;17.73;100.00;101587.09;5048561;28;20058;-72
2023/08/13 00:55:36;;;;;;;15.27;4.80;;;;;;;17.71;100.00;101591.72;5050088;28;20048;-72
2023/08/13 00:58:03;;;;;;;15.13;4.78;;;;;;;17.60;100.00;101586.34;5049061;28;20127;-71
2023/08/13 01:00:30;;;;;;;13.57;5.18;;;;;;;17.61;100.00;101588.91;5082675;27;20073;-72
2023/08/13 01:02:56;;;;;;;13.65;4.75;;;;;;;17.50;100.00;101588.91;5049451;28;20045;-72
2023/08/13 01:05:32;;;;;;;18.33;5.03;;;;;;;17.45;100.00;101595.66;5048938;28;20037;-72
2023/08/13 01:08:21;;;;;;;15.38;5.70;;;;;;;17.11;100.00;101602.88;5049655;28;20049;-72
2023/08/13 01:10:57;;;;;;;18.10;4.20;;;;;;;17.42;100.00;101588.69;5041305;28;20072;-72
2023/08/13 01:13:31;;;;;;;16.10;5.38;;;;;;;17.38;100.00;101600.69;5048966;28;20032;-72
2023/08/13 01:15:59;;;;;;;20.48;5.00;;;;;;;17.32;100.00;101604.75;5047601;28;20045;-72
2023/08/13 01:18:26;;;;;;;12.10;5.25;;;;;;;17.31;100.00;101600.31;5047622;28;20033;-72
2023/08/13 01:20:52;;;;;;;15.63;5.40;;;;;;;17.36;100.00;101597.25;5048033;28;20041;-72
2023/08/13 01:23:17;;;;;;;21.65;6.00;;;;;;;17.35;100.00;101601.78;5063208;28;20044;-72
2023/08/13 01:25:56;;;;;;;12.60;4.60;;;;;;;17.31;100.00;101599.47;5048681;28;20620;-72
2023/08/13 01:28:46;;;;;;;17.33;5.03;;;;;;;17.37;100.00;101598.09;5042358;28;20231;-72
2023/08/13 01:31:19;;;;;;;17.40;5.30;;;;;;;17.22;100.00;101598.38;5049614;28;20174;-72
2023/08/13 01:33:46;;;;;;;15.40;5.90;;;;;;;17.21;100.00;101593.09;5075125;27;20055;-72
2023/08/13 01:36:16;;;;;;;23.48;6.25;;;;;;;17.25;100.00;101594.56;5049646;28;20037;-72
2023/08/13 01:38:44;;;;;;;19.77;5.28;;;;;;;17.30;100.00;101592.34;5047754;28;21140;-71
2023/08/13 01:41:09;;;;;;;20.13;5.70;;;;;;;17.21;100.00;101587.69;5049320;28;21054;-72
2023/08/13 01:43:35;;;;;;;20.05;6.03;;;;;;;17.28;100.00;101592.47;5048281;28;20034;-72
2023/08/13 01:46:02;;;;;;;17.85;5.53;;;;;;;17.20;100.00;101600.31;5047686;28;20021;-71
2023/08/13 01:48:28;;;;;;;12.40;5.82;;;;;;;17.23;100.00;101593.84;5047475;28;20040;-72
2023/08/13 01:50:54;;;;;;;16.38;5.68;;;;;;;17.03;100.00;101585.50;5081444;27;20143;-71
2023/08/13 01:53:19;;;;;;;14.00;4.88;;;;;;;17.19;100.00;101595.06;5045218;28;20042;-72
2023/08/13 01:55:45;;;;;;;21.30;5.45;;;;;;;17.03;100.00;101590.03;5047588;28;20049;-72
2023/08/13 01:58:11;;;;;;;14.45;4.53;;;;;;;17.01;100.00;101603.59;5047788;28;20029;-72
2023/08/13 02:00:36;;;;;;;16.00;4.97;;;;;;;17.10;100.00;101604.72;5052632;28;20569;-72
2023/08/13 02:03:02;;;;;;;14.13;5.10;;;;;;;16.99;100.00;101604.69;5048020;28;20456;-72
2023/08/13 02:05:28;;;;;;;11.52;4.88;;;;;;;17.06;100.00;101604.09;5057080;28;20045;-72
2023/08/13 02:07:53;;;;;;;15.15;4.72;;;;;;;16.99;100.00;101605.56;5043775;28;20045;-72
2023/08/13 02:10:21;;;;;;;15.50;5.82;;;;;;;17.00;100.00;101593.78;5063136;28;20037;-72
2023/08/13 02:12:47;;;;;;;16.33;5.18;;;;;;;16.92;100.00;101596.25;5049049;28;20037;-72
2023/08/13 02:15:12;;;;;;;18.20;5.40;;;;;;;16.77;100.00;101598.31;5056817;28;20041;-72
2023/08/13 02:17:44;;;;;;;14.88;4.53;;;;;;;16.72;100.00;101602.34;5049612;28;20519;-72
2023/08/13 02:20:10;;;;;;;14.48;5.28;;;;;;;16.92;100.00;101604.34;5048959;28;20042;-72
2023/08/13 02:22:36;;;;;;;14.57;5.18;;;;;;;16.69;100.00;101606.06;5047980;28;20110;-72
2023/08/13 02:25:01;;;;;;;15.20;4.80;;;;;;;16.77;100.00;101617.16;5060496;28;20033;-72
2023/08/13 02:27:27;;;;;;;14.90;4.78;;;;;;;16.74;100.00;101612.00;5079395;28;20088;-72
2023/08/13 02:29:52;;;;;;;16.40;4.85;;;;;;;16.82;100.00;101606.88;5079761;28;20037;-72
2023/08/13 02:32:18;;;;;;;21.48;5.35;;;;;;;16.67;100.00;101604.50;5048969;28;20041;-72
2023/08/13 02:34:46;;;;;;;12.75;4.68;;;;;;;16.77;100.00;101601.00;5079672;28;20037;-72
2023/08/13 02:37:11;;;;;;;10.60;4.80;;;;;;;16.72;100.00;101600.50;5047765;28;20553;-72
2023/08/13 02:39:37;;;;;;;19.10;5.30;;;;;;;16.76;100.00;101596.56;5049312;28;20052;-72
2023/08/13 02:42:03;;;;;;;10.13;4.43;;;;;;;16.64;100.00;101588.56;5045932;28;20032;-72
2023/08/13 02:44:28;;;;;;;16.17;5.13;;;;;;;16.70;100.00;101594.31;5047422;28;20029;-72
2023/08/13 02:46:54;;;;;;;18.38;5.18;;;;;;;16.56;100.00;101598.06;5049252;28;20029;-72
2023/08/13 02:49:20;;;;;;;13.30;4.07;;;;;;;16.65;100.00;101598.34;5049014;28;20788;-72
2023/08/13 02:51:45;;;;;;;15.27;4.90;;;;;;;16.60;100.00;101604.06;5045132;28;20033;-72
2023/08/13 02:54:11;;;;;;;12.52;4.63;;;;;;;16.59;100.00;101596.97;5047329;28;20037;-71
2023/08/13 02:56:37;;;;;;;13.70;4.47;;;;;;;16.51;100.00;101592.16;5043863;28;20037;-72
2023/08/13 02:59:03;;;;;;;13.05;4.72;;;;;;;16.58;100.00;101592.56;5041803;28;20035;-72
2023/08/13 03:01:29;;;;;;;12.30;4.32;;;;;;;16.62;100.00;101593.19;5053539;28;20029;-72
2023/08/13 03:04:00;;;;;;;19.00;5.00;;;;;;;16.58;100.00;101587.19;5062925;28;20063;-72
2023/08/13 03:06:26;;;;;;;19.13;4.88;;;;;;;16.55;100.00;101592.81;5062934;28;20048;-72
2023/08/13 03:08:51;;;;;;;16.83;4.85;;;;;;;16.48;100.00;101589.72;5046737;28;20834;-71
2023/08/13 03:11:17;;;;;;;14.80;4.78;;;;;;;16.53;100.00;101589.38;5047910;28;20051;-73
2023/08/13 03:13:44;;;;;;;18.75;4.88;;;;;;;16.51;100.00;101594.84;5046100;28;20040;-72
2023/08/13 03:16:10;;;;;;;21.13;5.45;;;;;;;16.49;100.00;101598.66;5046264;28;20051;-72
2023/08/13 03:18:37;;;;;;;17.33;5.47;;;;;;;16.46;100.00;101601.56;5058186;28;20037;-72
2023/08/13 03:21:05;;;;;;;17.98;4.75;;;;;;;16.53;100.00;101602.84;5046105;28;20033;-72
2023/08/13 03:23:32;;;;;;;16.90;4.75;;;;;;;16.51;100.00;101597.56;5042084;28;20490;-72
2023/08/13 03:25:59;;;;;;;11.98;5.05;;;;;;;16.36;100.00;101601.41;5060843;28;20032;-72
2023/08/13 03:28:25;;;;;;;19.95;4.75;;;;;;;16.31;100.00;101601.78;5055703;28;20152;-72
2023/08/13 03:31:02;;;;;;;13.55;4.60;;;;;;;16.26;100.00;101598.56;5063200;28;20033;-72
2023/08/13 03:33:38;;;;;;;19.10;5.65;;;;;;;16.21;100.00;101600.72;5042553;28;20079;-72
2023/08/13 03:36:04;;;;;;;19.58;5.70;;;;;;;16.35;100.00;101596.16;5056343;28;22285;-72
2023/08/13 03:38:29;;;;;;;17.27;5.35;;;;;;;16.24;100.00;101603.19;5046730;28;20111;-72
2023/08/13 03:40:56;;;;;;;22.83;5.72;;;;;;;16.18;100.00;101594.75;5049942;28;20079;-72
2023/08/13 03:43:21;;;;;;;19.15;4.72;;;;;;;16.21;100.00;101600.72;5053637;28;20033;-72
2023/08/13 03:45:47;;;;;;;15.93;5.60;;;;;;;16.21;100.00;101598.03;5046679;28;20032;-72
2023/08/13 03:48:13;;;;;;;19.30;4.80;;;;;;;16.19;100.00;101596.44;5046499;28;20046;-72
2023/08/13 03:50:42;;;;;;;16.23;5.18;;;;;;;16.27;100.00;101600.28;5043497;28;20725;-72
2023/08/13 03:53:09;;;;;;;21.10;5.28;;;;;;;16.12;100.00;101603.28;5028317;28;20037;-72
2023/08/13 03:55:36;;;;;;;15.88;5.82;;;;;;;16.14;100.00;101604.00;5046518;28;20037;-72
2023/08/13 03:58:02;;;;;;;19.45;4.40;;;;;;;16.16;100.00;101600.22;5066965;28;20033;-71
2023/08/13 04:00:30;;;;;;;14.43;4.25;;;;;;;16.16;100.00;101607.44;5047399;28;20034;-72
2023/08/13 04:02:55;;;;;;;20.83;6.15;;;;;;;16.20;100.00;101604.41;5044733;28;20039;-72
2023/08/13 04:05:21;;;;;;;15.38;4.80;;;;;;;16.22;100.00;101604.31;5074558;28;20140;-72
2023/08/13 04:07:47;;;;;;;21.85;5.88;;;;;;;16.20;100.00;101603.53;5049131;28;20645;-72
2023/08/13 04:10:12;;;;;;;17.80;5.47;;;;;;;16.18;100.00;101598.28;5051197;28;20033;-71
2023/08/13 04:12:38;;;;;;;18.55;5.32;;;;;;;16.20;100.00;101603.53;5043617;28;20034;-72
2023/08/13 04:15:07;;;;;;;17.80;5.55;;;;;;;16.17;100.00;101606.50;5036768;28;20049;-72
2023/08/13 04:17:33;;;;;;;16.35;6.28;;;;;;;16.20;100.00;101593.63;5048692;28;20131;-72
2023/08/13 04:19:59;;;;;;;17.88;6.30;;;;;;;16.23;100.00;101598.81;5046349;28;20106;-72
2023/08/13 04:22:25;;;;;;;15.65;5.82;;;;;;;16.20;100.00;101600.84;5047853;28;20041;-71
2023/08/13 04:24:50;;;;;;;16.55;5.53;;;;;;;16.22;100.00;101602.47;5041650;28;20045;-71
2023/08/13 04:27:27;;;;;;;23.10;6.30;;;;;;;16.25;100.00;101599.53;5080200;28;20102;-72
2023/08/13 04:29:52;;;;;;;17.50;5.53;;;;;;;16.26;100.00;101606.63;5022603;28;20030;-71
2023/08/13 04:32:19;;;;;;;15.40;5.65;;;;;;;16.29;100.00;101608.25;5039174;28;20041;-71
2023/08/13 04:34:45;;;;;;;13.32;5.25;;;;;;;16.42;100.00;101608.19;5022108;28;20041;-72
2023/08/13 04:37:11;;;;;;;11.52;5.28;;;;;;;16.80;100.00;101610.66;5066186;28;20056;-71
2023/08/13 04:39:38;;;;;;;16.85;6.07;;;;;;;16.96;100.00;101605.78;5030310;28;20037;-71
2023/08/13 04:42:04;;;;;;;16.17;5.82;;;;;;;17.08;100.00;101610.22;5031376;28;20033;-72
2023/08/13 04:44:29;;;;;;;14.13;4.60;;;;;;;17.40;100.00;101611.34;5033315;28;20033;-72
2023/08/13 04:46:57;;;;;;;15.40;4.78;;;;;;;17.36;100.00;101605.34;5028219;28;20042;-71
2023/08/13 04:49:23;;;;;;;18.25;5.88;;;;;;;17.63;100.00;101598.72;5047623;28;20037;-72
2023/08/13 04:51:49;;;;;;;18.27;6.00;;;;;;;18.02;100.00;101609.00;5040304;28;20788;-71
2023/08/13 04:54:14;;;;;;;25.98;5.45;;;;;;;18.40;100.00;101587.88;5048293;28;20055;-72
2023/08/13 04:56:40;;;;;;;19.13;6.28;;;;;;;18.43;100.00;101593.88;5027573;28;20098;-72
2023/08/13 04:59:06;;;;;;;18.42;5.40;;;;;;;18.31;100.00;101598.44;5070111;28;20026;-71
2023/08/13 05:01:33;;;;;;;22.10;5.20;;;;;;;18.33;100.00;101592.94;5039119;28;20034;-72
2023/08/13 05:04:00;;;;;;;18.30;5.57;;;;;;;18.46;100.00;101598.13;5053572;28;20055;-71
2023/08/13 05:06:28;;;;;;;17.13;5.78;;;;;;;18.39;100.00;101589.72;5034174;28;20049;-71
2023/08/13 05:08:54;;;;;;;20.60;5.00;;;;;;;18.35;100.00;101602.59;5042551;28;20287;-73
2023/08/13 05:11:19;;;;;;;17.50;5.13;;;;;;;18.53;100.00;101600.22;5037504;28;20112;-71
2023/08/13 05:13:46;;;;;;;20.52;5.05;;;;;;;18.60;100.00;101592.44;5040434;28;20076;-72
2023/08/13 05:16:13;;;;;;;17.05;5.38;;;;;;;18.60;100.00;101587.03;5042861;28;20146;-72
2023/08/13 05:18:41;;;;;;;14.98;4.82;;;;;;;18.65;100.00;101590.19;5027678;28;20057;-71
2023/08/13 05:21:07;;;;;;;15.13;5.32;;;;;;;18.68;100.00;101591.78;5063390;28;20037;-72
2023/08/13 05:23:33;;;;;;;19.27;4.90;;;;;;;18.55;100.00;101600.91;5029524;28;20216;-72
2023/08/13 05:25:59;;;;;;;17.65;5.05;;;;;;;18.45;100.00;101591.88;5040282;28;20041;-72
2023/08/13 05:28:26;;;;;;;18.40;4.68;;;;;;;18.38;100.00;101591.56;5040723;28;20036;-72
2023/08/13 05:30:51;;;;;;;18.52;4.43;;;;;;;18.57;100.00;101593.53;5027887;28;20494;-72
2023/08/13 05:33:17;;;;;;;16.58;4.90;;;;;;;18.59;100.00;101602.38;5025953;28;20476;-71
2023/08/13 05:35:42;;;;;;;18.33;4.65;;;;;;;18.69;100.00;101596.22;5023083;28;20357;-71
2023/08/13 05:38:08;;;;;;;16.58;4.85;;;;;;;18.71;100.00;101587.00;5046759;28;20083;-71
2023/08/13 05:40:34;;;;;;;11.20;4.28;;;;;;;18.79;100.00;101594.44;5049213;28;20569;-72
2023/08/13 05:43:02;;;;;;;14.68;3.97;;;;;;;18.99;100.00;101593.59;5023412;28;20018;-71
2023/08/13 05:45:27;;;;;;;12.00;4.28;;;;;;;19.25;100.00;101604.81;5017473;28;20050;-71
2023/08/13 05:47:53;;;;;;;11.75;4.32;;;;;;;19.23;100.00;101596.00;5024714;28;20033;-72
2023/08/13 05:50:19;;;;;;;19.05;4.78;;;;;;;19.08;100.00;101602.75;5021187;28;20038;-72
2023/08/13 05:52:45;;;;;;;14.95;4.43;;;;;;;18.99;100.00;101603.53;5024228;28;20042;-72
2023/08/13 05:55:10;;;;;;;12.10;4.05;;;;;;;19.03;100.00;101608.56;5025783;28;20111;-72
2023/08/13 05:57:36;;;;;;;17.30;4.88;;;;;;;19.18;100.00;101609.06;5057845;28;20111;-72
2023/08/13 06:00:07;;;;;;;16.60;4.57;;;;;;;19.42;100.00;101619.53;5027599;28;20038;-71
2023/08/13 06:02:38;;;;;;;18.15;4.68;;;;;;;19.25;100.00;101614.78;5045256;28;20079;-72
2023/08/13 06:05:06;;;;;;;17.27;4.50;;;;;;;19.56;100.00;101616.47;5028784;28;20033;-71
2023/08/13 06:07:32;;;;;;;15.30;4.53;;;;;;;19.32;100.00;101614.09;5035709;28;20332;-71
2023/08/13 06:09:58;;;;;;;18.60;4.57;;;;;;;19.56;100.00;101610.22;5033316;28;20160;-71
2023/08/13 06:12:24;;;;;;;16.00;4.22;;;;;;;19.53;100.00;101614.06;5032866;28;20090;-71
2023/08/13 06:14:49;;;;;;;14.27;5.03;;;;;;;19.64;100.00;101608.56;5027438;28;20033;-71
2023/08/13 06:17:15;;;;;;;12.77;4.22;;;;;;;19.62;100.00;101618.66;5034017;28;20039;-72
2023/08/13 06:19:42;;;;;;;16.45;4.72;;;;;;;19.63;100.00;101614.13;5027322;28;20116;-72
2023/08/13 06:22:08;;;;;;;19.85;4.47;;;;;;;19.74;100.00;101611.31;5028193;28;20061;-72
2023/08/13 06:24:34;;;;;;;21.60;4.97;;;;;;;19.94;100.00;101619.50;5029167;28;21059;-71
2023/08/13 06:26:59;;;;;;;11.93;5.07;;;;;;;19.87;100.00;101620.03;5042133;28;20044;-71
2023/08/13 06:29:25;;;;;;;19.33;5.18;;;;;;;20.24;100.00;101621.25;5031730;28;20072;-73
2023/08/13 06:31:51;;;;;;;14.15;5.07;;;;;;;20.11;100.00;101616.09;5026944;28;20090;-71
2023/08/13 06:34:16;;;;;;;13.88;5.22;;;;;;;20.39;100.00;101617.97;5024511;28;20076;-71
2023/08/13 06:36:42;;;;;;;20.58;5.50;;;;;;;20.40;100.00;101616.13;5024116;28;20045;-72
2023/08/13 06:39:08;;;;;;;15.70;5.38;;;;;;;20.38;100.00;101624.41;5028785;28;20203;-72
2023/08/13 06:41:33;;;;;;;17.10;5.55;;;;;;;20.78;100.00;101622.53;5026342;28;20141;-72
2023/08/13 06:44:03;;;;;;;11.25;5.03;;;;;;;20.90;100.00;101621.41;5027315;28;20047;-72
2023/08/13 06:46:29;;;;;;;17.88;6.22;;;;;;;21.06;100.00;101613.50;5015860;28;20036;-72
2023/08/13 06:48:54;;;;;;;16.60;5.47;;;;;;;21.41;100.00;101621.00;5031113;28;20029;-72
2023/08/13 06:51:20;;;;;;;13.48;5.07;;;;;;;21.49;100.00;101625.69;5060112;28;20090;-72
2023/08/13 06:53:45;;;;;;;16.88;4.47;;;;;;;21.43;100.00;101613.56;5024558;28;20034;-72
2023/08/13 06:56:11;;;;;;;14.13;5.97;;;;;;;21.72;98.82;101618.00;5024632;28;20111;-72
2023/08/13 06:58:36;;;;;;;12.73;5.15;;;;;;;21.89;97.09;101608.22;5030511;28;20111;-72
2023/08/13 07:01:03;;;;;;;12.82;5.40;;;;;;;21.95;98.25;101610.31;5030397;28;20040;-71
2023/08/13 07:03:28;;;;;;;12.55;4.22;;;;;;;22.05;96.73;101613.81;5029421;28;20038;-72
2023/08/13 07:05:54;;;;;;;19.35;5.70;;;;;;;22.07;95.35;101610.94;5031955;28;20911;-72
2023/08/13 07:08:21;;;;;;;17.60;4.35;;;;;;;22.03;97.40;101617.69;5024315;28;20046;-72
2023/08/13 07:10:46;;;;;;;13.25;4.68;;;;;;;22.10;96.23;101616.94;5027430;28;20037;-72
2023/08/13 07:13:12;;;;;;;15.00;5.00;;;;;;;22.11;97.35;101610.50;5030540;28;20057;-72
2023/08/13 07:15:38;;;;;;;14.98;5.45;;;;;;;22.11;96.66;101615.94;5032218;28;20038;-72
2023/08/13 07:18:04;;;;;;;15.07;5.25;;;;;;;22.56;96.36;101614.19;5027857;28;21084;-71
2023/08/13 07:20:29;;;;;;;12.18;4.88;;;;;;;22.61;93.64;101609.97;5034475;28;20029;-71
2023/08/13 07:22:58;;;;;;;18.33;4.82;;;;;;;22.82;92.46;101606.91;5047909;28;20037;-72
2023/08/13 07:25:24;;;;;;;15.45;4.35;;;;;;;22.91;91.14;101610.59;5012057;28;20034;-72
2023/08/13 07:27:49;;;;;;;15.38;4.43;;;;;;;22.55;92.01;101610.59;5024405;28;20048;-72
2023/08/13 07:30:15;;;;;;;15.60;4.43;;;;;;;22.19;93.05;101613.31;5027705;28;20109;-71
2023/08/13 07:32:41;;;;;;;11.27;4.47;;;;;;;21.90;98.53;101618.06;5029547;28;20033;-72
2023/08/13 07:35:07;;;;;;;22.60;4.75;;;;;;;22.03;96.07;101612.25;5031133;28;20120;-71
2023/08/13 07:37:33;;;;;;;15.18;4.47;;;;;;;22.19;96.16;101613.31;5032058;28;20067;-71
2023/08/13 07:39:59;;;;;;;11.85;4.35;;;;;;;22.45;98.16;101610.69;5033583;28;20149;-72
2023/08/13 07:42:25;;;;;;;14.50;4.38;;;;;;;22.70;93.42;101613.63;5027432;28;20673;-71
2023/08/13 07:44:51;;;;;;;18.98;5.10;;;;;;;23.18;93.48;101615.84;5033401;28;20029;-71
2023/08/13 07:47:17;;;;;;;17.52;4.07;;;;;;;23.52;89.08;101601.41;5033095;28;20183;-71
2023/08/13 07:49:43;;;;;;;10.52;3.97;;;;;;;23.40;89.83;101614.47;5023815;28;20052;-71
2023/08/13 07:52:08;;;;;;;15.95;5.45;;;;;;;23.34;89.67;101612.38;5026832;28;20114;-71
2023/08/13 07:54:36;;;;;;;11.07;4.07;;;;;;;23.82;90.76;101608.19;5032146;28;20037;-71
2023/08/13 07:57:04;;;;;;;11.48;3.85;;;;;;;23.94;86.65;101606.00;5023633;28;20045;-71
2023/08/13 07:59:29;;;;;;;11.63;4.22;;;;;;;23.63;86.44;101605.72;5067587;27;20026;-71
2023/08/13 08:01:55;;;;;;;10.63;3.47;;;;;;;23.68;86.28;101608.81;5057732;28;20038;-71
2023/08/13 08:04:21;;;;;;;14.70;3.75;;;;;;;23.91;87.42;101600.91;5045647;28;20042;-71
2023/08/13 08:06:47;;;;;;;14.25;4.00;;;;;;;23.88;86.69;101593.91;5031615;28;20047;-71
2023/08/13 08:09:12;;;;;;;14.70;3.75;;;;;;;23.62;86.49;101598.56;5030422;28;20030;-71
2023/08/13 08:11:38;;;;;;;12.63;3.85;;;;;;;23.68;85.49;101593.34;5033517;28;20037;-71
2023/08/13 08:14:03;;;;;;;14.68;4.30;;;;;;;23.60;86.35;101596.00;5031100;28;20029;-71
2023/08/13 08:16:29;;;;;;;14.48;4.32;;;;;;;23.74;86.54;101589.09;5032021;28;20073;-71
2023/08/13 08:18:54;;;;;;;19.65;4.82;;;;;;;23.97;88.01;101590.19;5031683;28;20052;-71
2023/08/13 08:21:20;;;;;;;11.70;3.67;;;;;;;24.31;87.53;101589.25;5026846;28;21281;-71
2023/08/13 08:23:45;;;;;;;10.43;3.90;;;;;;;24.23;87.53;101581.03;5031539;28;20034;-71
2023/08/13 08:26:11;;;;;;;12.32;3.47;;;;;;;24.26;85.75;101586.16;5048021;28;20044;-71
2023/08/13 08:28:36;;;;;;;9.75;4.10;;;;;;;24.38;85.59;101589.44;5030554;28;20868;-71
2023/08/13 08:31:02;;;;;;;9.93;3.28;;;;;;;24.12;85.94;101590.41;5032729;28;20048;-71
2023/08/13 08:33:27;;;;;;;11.90;3.75;;;;;;;24.31;84.43;101591.97;5032862;28;20044;-70
2023/08/13 08:35:53;;;;;;;10.52;3.25;;;;;;;24.24;87.16;101596.38;5034328;28;20041;-71
2023/08/13 08:38:18;;;;;;;13.23;3.63;;;;;;;24.21;86.43;101597.56;5036120;28;20140;-71
2023/08/13 08:40:47;;;;;;;14.85;3.80;;;;;;;24.00;84.30;101589.03;5030540;28;20042;-71
2023/08/13 08:43:13;;;;;;;12.30;4.22;;;;;;;24.10;83.25;101591.56;5029286;28;20140;-71
2023/08/13 08:45:40;;;;;;;9.57;3.38;;;;;;;24.26;86.01;101589.75;5030338;28;20039;-71
2023/08/13 08:48:10;;;;;;;12.63;3.47;;;;;;;24.47;87.62;101597.47;5022882;28;20059;-71
2023/08/13 08:50:36;;;;;;;12.13;3.78;;;;;;;24.16;83.28;101599.94;5040960;28;20033;-71
2023/08/13 08:53:03;;;;;;;19.25;3.25;;;;;;;23.91;83.02;101585.41;5038877;28;20772;-71
2023/08/13 08:55:30;;;;;;;16.05;3.53;;;;;;;23.99;85.60;101588.16;5026510;28;20171;-71
2023/08/13 08:57:55;;;;;;;7.80;2.72;;;;;;;24.02;82.50;101593.28;5028737;28;20867;-71
2023/08/13 09:00:21;;;;;;;12.10;3.20;;;;;;;23.74;83.08;101591.81;5026961;28;20052;-71
2023/08/13 09:02:47;;;;;;;11.38;3.97;;;;;;;24.34;84.36;101591.59;5024883;28;20037;-71
2023/08/13 09:05:12;;;;;;;13.43;3.53;;;;;;;24.67;83.91;101584.34;5027997;28;20037;-71
2023/08/13 09:07:42;;;;;;;16.13;3.58;;;;;;;24.72;80.71;101589.28;5028775;28;20048;-71
2023/08/13 09:10:08;;;;;;;10.70;3.80;;;;;;;25.11;82.26;101583.13;5026115;28;20121;-71
2023/08/13 09:12:40;;;;;;;14.63;4.10;;;;;;;25.49;79.63;101582.28;5041360;28;20056;-72
2023/08/13 09:15:06;;;;;;;10.75;3.58;;;;;;;25.37;79.47;101580.97;5050201;28;20738;-71
2023/08/13 09:17:32;;;;;;;15.20;3.92;;;;;;;25.73;78.88;101577.75;5026434;28;20095;-71
2023/08/13 09:20:00;;;;;;;11.20;3.00;;;;;;;26.08;78.78;101579.97;5029574;28;20489;-71
2023/08/13 09:22:32;;;;;;;11.48;3.85;;;;;;;25.42;77.16;101583.19;5020329;28;20034;-72
2023/08/13 09:25:00;;;;;;;;;;;;;;;25.78;76.57;101583.56;5031503;28;20033;-71
2023/08/13 09:27:25;;;;;;;12.30;3.80;;;;;;;24.72;75.77;101576.50;5024119;28;19929;-70
2023/08/13 09:29:54;;;;;;;12.10;3.15;;;;;;;25.04;73.77;101577.44;5023407;28;20034;-71
2023/08/13 09:32:20;;;;;;;10.18;3.28;;;;;;;25.20;74.72;101568.41;5021611;28;20038;-71
2023/08/13 09:34:46;;;;;;;9.68;2.85;;;;;;;25.61;76.92;101569.13;5024296;28;20104;-71
2023/08/13 09:37:12;;;;;;;14.85;3.88;;;;;;;25.56;75.49;101568.78;5026034;28;20042;-70
2023/08/13 09:39:40;;;;;;;9.75;2.70;;;;;;;25.42;72.87;101564.91;5023594;28;20030;-70
2023/08/13 09:42:07;;;;;;;12.88;3.47;;;;;;;25.18;75.11;101562.28;5031959;28;20047;-71
2023/08/13 09:44:33;;;;;;;10.05;3.25;;;;;;;25.05;73.93;101571.84;5029056;28;20038;-71
2023/08/13 09:47:01;;;;;;;10.90;3.30;;;;;;;25.05;74.39;101566.38;5027182;28;20026;-71
2023/08/13 09:49:34;;;;;;;9.82;2.92;;;;;;;25.18;74.57;101570.47;5027193;28;20042;-71
2023/08/13 09:52:09;;;;;;;12.93;2.85;;;;;;;25.08;75.22;101557.00;5025554;28;20040;-70
2023/08/13 09:54:56;;;;;;;14.60;4.10;;;;;;;24.84;74.42;101554.28;5021540;28;20137;-71
2023/08/13 09:57:22;;;;;;;16.27;3.58;;;;;;;24.97;74.17;101558.19;5037069;28;20049;-71
2023/08/13 09:59:49;;;;;;;11.48;3.63;;;;;;;25.23;73.06;101555.25;5029470;28;20038;-71
2023/08/13 10:02:15;;;;;;;10.52;3.22;;;;;;;24.84;75.24;101549.69;5044080;28;20049;-71
2023/08/13 10:04:41;;;;;;;12.50;3.00;;;;;;;25.47;76.23;101545.28;5035600;28;20044;-71
2023/08/13 10:07:07;;;;;;;11.35;3.00;;;;;;;25.37;73.39;101545.47;5024302;28;20077;-72
2023/08/13 10:09:34;;;;;;;11.77;3.70;;;;;;;25.59;73.12;101541.09;5037826;28;20034;-71
2023/08/13 10:12:05;;;;;;;15.45;3.30;;;;;;;25.21;70.59;101542.81;5032496;28;20033;-71
2023/08/13 10:14:31;;;;;;;13.07;4.07;;;;;;;25.68;71.16;101540.03;5034633;28;20046;-71
2023/08/13 10:17:00;;;;;;;12.50;3.38;;;;;;;25.67;71.35;101542.97;5040995;28;20037;-71
2023/08/13 10:19:29;;;;;;;10.70;3.33;;;;;;;26.01;70.80;101542.63;5031476;28;20072;-72
2023/08/13 10:21:56;;;;;;;11.05;3.25;;;;;;;26.44;69.88;101532.88;5032879;28;20037;-72
2023/08/13 10:24:22;;;;;;;18.88;3.85;;;;;;;26.50;68.50;101520.34;5037472;28;20032;-71
2023/08/13 10:26:48;;;;;;;14.00;3.55;;;;;;;26.24;68.06;101528.94;5030692;28;20053;-70
2023/08/13 10:29:17;;;;;;;11.30;2.90;;;;;;;26.06;68.90;101527.38;5033891;28;20047;-71
2023/08/13 10:31:59;;;;;;;11.68;3.15;;;;;;;26.43;67.50;101524.88;5039649;28;20091;-71
2023/08/13 10:34:47;;;;;;;12.25;3.40;;;;;;;26.34;66.29;101524.06;5032596;28;20038;-71
2023/08/13 10:37:17;;;;;;;12.82;3.60;;;;;;;26.75;68.01;101521.81;5068965;28;20051;-71
2023/08/13 10:39:43;;;;;;;14.88;3.45;;;;;;;27.07;64.65;101515.19;5040351;28;20038;-71
2023/08/13 10:42:27;;;;;;;12.75;3.17;;;;;;;27.17;64.86;101523.09;5050341;28;20025;-71
2023/08/13 10:45:00;;;;;;;12.43;3.10;;;;;;;26.77;64.67;101521.66;5041039;28;20041;-71
2023/08/13 10:47:37;;;;;;;11.85;2.97;;;;;;;26.65;66.29;101514.91;5037940;28;20084;-71
2023/08/13 10:50:13;;;;;;;12.30;3.47;;;;;;;26.56;65.58;101515.00;5042849;28;20033;-71
2023/08/13 10:52:39;;;;;;;11.80;3.65;;;;;;;26.70;65.62;101518.78;5036818;28;20038;-71
2023/08/13 10:55:05;;;;;;;12.85;3.00;;;;;;;26.97;66.28;101520.06;5032529;28;20071;-71
2023/08/13 10:57:30;;;;;;;11.13;2.85;;;;;;;27.14;65.47;101522.63;5040499;28;20029;-71
2023/08/13 10:59:57;;;;;;;10.63;2.90;;;;;;;26.49;64.21;101515.91;5024574;28;20152;-71
2023/08/13 11:02:24;;;;;;;13.00;3.05;;;;;;;26.03;65.86;101511.31;5031723;28;20037;-71
2023/08/13 11:04:51;;;;;;;11.68;3.20;;;;;;;26.07;65.61;101515.38;5030434;28;20044;-71
2023/08/13 11:07:17;;;;;;;9.70;3.17;;;;;;;26.44;66.47;101516.47;5036884;28;20041;-71
2023/08/13 11:09:43;;;;;;;14.18;3.05;;;;;;;26.73;66.68;101512.94;5030452;28;20034;-71
2023/08/13 11:12:09;;;;;;;10.80;3.08;;;;;;;27.13;63.93;101509.97;5015260;28;20033;-71